Pagina principale
METAR-TAF:

METAR-TAF

Aeroporti :

Aeroporto Internazionale di Gedda-Re Abd al-Aziz

Gedda, Arabia Saudita

latitudine: 21-42N, longitudine: 039-11E, altezza: 15 m

Osservazione

Il bollettino è stato emesso 58 minuti fa, alle 00:00 UTC
Vento calmo
Temperature 32°C
Umidità 59%
Pressione 1003 hPa
Visibilità 10 km o più
nessuna nube inferiore a 1500 m e nessun cumulonembo

METAR: OEJN 160000Z 00000KT CAVOK 32/23 Q1003 NOSIG

Ora: 03:58 (00:58 UTC)

Previsione

Il bollettino è stato emesso 1 ora e 58 minuti fa, alle 23:00 UTC
Previsione valida dal 16 alle 00 UTC al 17 alle 06 UTC
Vento 3 kt da direzioni variabili
Visibilità: 7000 m
Evoluzione graduale
dal 16 alle 06 UTC al 16 alle 08 UTC
Vento 10 kt da ovest/sud-ovest

TAF: OEJN 152300Z 1600/1706 VRB03KT 7000 NSC BECMG 1606/1608 24010KT

Osservazioni e previsioni meteorologiche di più di 4000 aeroporti (messaggi METAR e TAF).

Le stazioni disponibili sono rappresentate dai dischi gialli e rossi sulla carta.

Puntare il mouse per vedere il nome della stazione.

Clicca sopra per visualizzare le osservazioni e previsioni meteorologiche.

Per cambiare la mappa : fare clic sui pulsanti verdi con una croce nera per ingrandire, il pulsante verde con un trattino per diminuire, o sulla freccia verde per le mappe adiacenti.


METAR-TAF: